Time;durP1;ratioP1;P1;durP2;ratioP2;P2;SDS_P1;SDS_P2;PMS_P1;PMS_P2;Temp;Humidity;BMP_temperature;BMP_pressure;BME280_temperature;BME280_humidity;BME280_pressure;Samples;Min_cycle;Max_cycle;Signal;HPM_P1;HPM_P2
2022/05/24 00:00:14;;;;;;;;;4.00;3.00;;;;;;;;5054692;28;45455;-66
2022/05/24 00:02:39;;;;;;;;;3.50;1.75;;;;;;;;5057148;28;46904;-66
2022/05/24 00:05:05;;;;;;;;;4.25;2.75;;;;;;;;5058333;28;45377;-67
2022/05/24 00:07:30;;;;;;;;;2.75;2.75;;;;;;;;5057267;28;45542;-66
2022/05/24 00:09:55;;;;;;;;;3.00;3.00;;;;;;;;5057959;28;45597;-66
2022/05/24 00:12:20;;;;;;;;;4.25;3.00;;;;;;;;5055683;28;47298;-66
2022/05/24 00:17:29;;;;;;;;;3.00;2.00;;;;;;;;5066939;28;45333;-66
2022/05/24 00:19:54;;;;;;;;;2.00;2.00;;;;;;;;5059668;28;45246;-66
2022/05/24 00:22:20;;;;;;;;;2.00;2.00;;;;;;;;5060607;28;45938;-66
2022/05/24 00:24:45;;;;;;;;;1.50;1.50;;;;;;;;5061072;28;45330;-67
2022/05/24 00:27:10;;;;;;;;;2.00;2.00;;;;;;;;5057691;28;45514;-66
2022/05/24 00:29:35;;;;;;;;;2.00;2.00;;;;;;;;5061192;28;45585;-66
2022/05/24 00:32:01;;;;;;;;;2.00;2.00;;;;;;;;5061399;28;46979;-66
2022/05/24 00:34:26;;;;;;;;;3.00;3.00;;;;;;;;5060799;28;45425;-66
2022/05/24 00:36:51;;;;;;;;;2.00;2.00;;;;;;;;5060495;28;45332;-66
2022/05/24 00:39:16;;;;;;;;;3.00;2.00;;;;;;;;5058327;28;45474;-66
2022/05/24 00:41:44;;;;;;;;;1.25;1.25;;;;;;;;5059810;28;46487;-67
2022/05/24 00:44:27;;;;;;;;;1.00;1.00;;;;;;;;5062042;28;45462;-67
2022/05/24 00:46:58;;;;;;;;;2.25;2.25;;;;;;;;5060427;28;45281;-66
2022/05/24 00:49:23;;;;;;;;;2.00;0.75;;;;;;;;5060484;28;45404;-66
2022/05/24 00:51:52;;;;;;;;;2.50;2.25;;;;;;;;5059833;27;46287;-66
2022/05/24 00:54:18;;;;;;;;;6.25;3.00;;;;;;;;5058044;28;45407;-66
2022/05/24 00:56:58;;;;;;;;;1.75;1.50;;;;;;;;5059199;28;45315;-66
2022/05/24 00:59:30;;;;;;;;;5.75;2.75;;;;;;;;5061802;28;45335;-67
2022/05/24 01:01:56;;;;;;;;;2.00;2.00;;;;;;;;5060070;28;46956;-66
2022/05/24 01:04:21;;;;;;;;;2.00;2.00;;;;;;;;5060210;28;45403;-67
2022/05/24 01:06:47;;;;;;;;;3.25;2.50;;;;;;;;5059965;28;45442;-67
2022/05/24 01:09:19;;;;;;;;;2.50;2.50;;;;;;;;5056750;28;45501;-66
2022/05/24 01:11:46;;;;;;;;;5.75;3.75;;;;;;;;5058407;28;47290;-67
2022/05/24 01:14:13;;;;;;;;;2.00;2.00;;;;;;;;5061377;28;45543;-67
2022/05/24 01:16:39;;;;;;;;;4.25;4.25;;;;;;;;5060140;28;45373;-67
2022/05/24 01:19:07;;;;;;;;;5.00;4.00;;;;;;;;5059993;28;45463;-66
2022/05/24 01:21:33;;;;;;;;;3.00;3.00;;;;;;;;5059093;28;47127;-66
2022/05/24 01:24:10;;;;;;;;;2.00;2.00;;;;;;;;5055795;28;45354;-66
2022/05/24 01:26:56;;;;;;;;;1.00;1.00;;;;;;;;5069927;27;45273;-67
2022/05/24 01:29:23;;;;;;;;;4.00;2.00;;;;;;;;5060917;28;45286;-66
2022/05/24 01:37:18;;;;;;;;;0.50;0.50;;;;;;;;5059949;28;45281;-67
2022/05/24 01:39:45;;;;;;;;;2.75;1.75;;;;;;;;5059749;28;45592;-66
2022/05/24 01:42:11;;;;;;;;;3.00;2.00;;;;;;;;5056200;28;47176;-67
2022/05/24 01:44:48;;;;;;;;;1.25;1.00;;;;;;;;5059862;28;45324;-67
2022/05/24 01:47:14;;;;;;;;;2.25;1.25;;;;;;;;5059853;27;45309;-66
2022/05/24 01:49:42;;;;;;;;;1.25;0.50;;;;;;;;5059175;28;45316;-67
2022/05/24 01:52:12;;;;;;;;;1.00;0.25;;;;;;;;5059374;28;47098;-67
2022/05/24 01:54:45;;;;;;;;;0.50;0.50;;;;;;;;5059529;28;45253;-67
2022/05/24 01:57:13;;;;;;;;;1.00;1.00;;;;;;;;5056145;28;45416;-67
2022/05/24 01:59:39;;;;;;;;;1.25;1.25;;;;;;;;5059436;28;45459;-67
2022/05/24 02:02:04;;;;;;;;;1.75;1.00;;;;;;;;5060055;28;47495;-67
2022/05/24 02:04:30;;;;;;;;;2.00;2.00;;;;;;;;5059064;28;45474;-66
2022/05/24 02:06:59;;;;;;;;;1.00;1.00;;;;;;;;5059406;28;45432;-67
2022/05/24 02:09:24;;;;;;;;;3.75;2.00;;;;;;;;5057800;28;45504;-65
2022/05/24 02:11:49;;;;;;;;;0.75;0.75;;;;;;;;5056274;28;46783;-65
2022/05/24 02:17:31;;;;;;;;;1.00;1.00;;;;;;;;5913311;22;46138;-65
2022/05/24 02:19:59;;;;;;;;;2.00;1.75;;;;;;;;5136999;22;45485;-66
2022/05/24 02:22:26;;;;;;;;;1.00;1.00;;;;;;;;5096673;27;46464;-66
2022/05/24 02:24:56;;;;;;;;;0.00;0.00;;;;;;;;5096311;27;45344;-67
2022/05/24 02:27:21;;;;;;;;;1.25;0.25;;;;;;;;5097067;27;45371;-66
2022/05/24 02:29:46;;;;;;;;;0.00;0.00;;;;;;;;5096342;27;45770;-65
2022/05/24 02:32:11;;;;;;;;;2.00;0.25;;;;;;;;5083491;27;46020;-66
2022/05/24 02:34:37;;;;;;;;;1.00;1.00;;;;;;;;5095799;27;45472;-66
2022/05/24 02:37:03;;;;;;;;;1.25;1.25;;;;;;;;5096525;27;45523;-66
2022/05/24 02:39:28;;;;;;;;;1.00;1.00;;;;;;;;5089468;27;45405;-65
2022/05/24 02:41:53;;;;;;;;;1.75;0.25;;;;;;;;5095331;27;46462;-65
2022/05/24 02:44:18;;;;;;;;;1.25;1.25;;;;;;;;5096204;27;45433;-66
2022/05/24 02:46:47;;;;;;;;;2.00;2.00;;;;;;;;5096327;27;45487;-65
2022/05/24 02:49:12;;;;;;;;;1.00;1.00;;;;;;;;5079853;27;45386;-65
2022/05/24 02:51:38;;;;;;;;;1.50;1.50;;;;;;;;5096545;27;46985;-66
2022/05/24 02:54:05;;;;;;;;;2.00;1.75;;;;;;;;5095844;27;45414;-65
2022/05/24 02:56:30;;;;;;;;;2.00;2.00;;;;;;;;5096055;27;45598;-65
2022/05/24 02:58:55;;;;;;;;;2.50;1.00;;;;;;;;5095764;27;45356;-65
2022/05/24 03:01:22;;;;;;;;;1.00;1.00;;;;;;;;5096105;27;47047;-65
2022/05/24 03:03:49;;;;;;;;;2.00;1.25;;;;;;;;5096224;27;45371;-66
2022/05/24 03:06:15;;;;;;;;;0.75;0.75;;;;;;;;5096532;27;45444;-66
2022/05/24 03:11:24;;;;;;;;;2.00;2.00;;;;;;;;5095721;27;45878;-66
2022/05/24 03:16:34;;;;;;;;;1.75;1.75;;;;;;;;5096078;27;45497;-66
2022/05/24 03:18:59;;;;;;;;;2.25;1.25;;;;;;;;5095136;27;45482;-66
2022/05/24 03:21:25;;;;;;;;;2.75;2.75;;;;;;;;5096575;27;46309;-67
2022/05/24 03:23:50;;;;;;;;;2.00;2.00;;;;;;;;5095894;27;45397;-67
2022/05/24 03:26:15;;;;;;;;;2.00;2.00;;;;;;;;5095839;27;45417;-67
2022/05/24 03:28:41;;;;;;;;;2.50;2.50;;;;;;;;5095943;27;45333;-67
2022/05/24 03:31:07;;;;;;;;;2.00;1.25;;;;;;;;5095818;27;47099;-67
2022/05/24 03:33:33;;;;;;;;;3.00;3.00;;;;;;;;5095667;27;45369;-67
2022/05/24 03:35:58;;;;;;;;;2.50;2.50;;;;;;;;5094453;27;46124;-66
2022/05/24 03:38:23;;;;;;;;;2.75;1.25;;;;;;;;5095309;27;45443;-65
2022/05/24 03:40:49;;;;;;;;;2.75;1.75;;;;;;;;5095870;27;45460;-65
2022/05/24 03:43:16;;;;;;;;;1.75;1.75;;;;;;;;5097649;27;45495;-65
2022/05/24 03:45:41;;;;;;;;;1.00;1.00;;;;;;;;5094011;27;45390;-63
2022/05/24 03:48:07;;;;;;;;;3.75;2.00;;;;;;;;5096469;27;45615;-63
2022/05/24 03:50:32;;;;;;;;;1.00;1.00;;;;;;;;5095935;27;46179;-63
2022/05/24 03:52:57;;;;;;;;;3.00;1.75;;;;;;;;5094864;27;45544;-64
2022/05/24 03:55:23;;;;;;;;;1.25;1.25;;;;;;;;5095538;27;45559;-63
2022/05/24 03:58:00;;;;;;;;;5.00;1.00;;;;;;;;5095409;27;45508;-63
2022/05/24 04:00:28;;;;;;;;;1.00;1.00;;;;;;;;5095801;27;47100;-64
2022/05/24 04:02:53;;;;;;;;;2.00;1.25;;;;;;;;5094488;27;45543;-63
2022/05/24 04:05:18;;;;;;;;;2.00;2.00;;;;;;;;5095073;27;45387;-63
2022/05/24 04:07:43;;;;;;;;;1.50;1.50;;;;;;;;5095313;27;45446;-64
2022/05/24 04:10:10;;;;;;;;;1.50;1.50;;;;;;;;5095088;27;47010;-64
2022/05/24 04:12:35;;;;;;;;;1.50;1.50;;;;;;;;5095821;27;45390;-63
2022/05/24 04:15:00;;;;;;;;;4.00;1.75;;;;;;;;5095036;27;45407;-63
2022/05/24 04:17:26;;;;;;;;;2.00;2.00;;;;;;;;5094537;27;45252;-63
2022/05/24 04:19:51;;;;;;;;;1.25;1.25;;;;;;;;5094558;27;46055;-65
2022/05/24 04:22:16;;;;;;;;;1.75;1.00;;;;;;;;5094537;27;45478;-65
2022/05/24 04:24:41;;;;;;;;;1.00;1.00;;;;;;;;5095796;27;45383;-63
2022/05/24 04:27:07;;;;;;;;;2.00;1.00;;;;;;;;5094728;27;45366;-64
2022/05/24 04:29:32;;;;;;;;;1.25;1.00;;;;;;;;5094616;27;46377;-64
2022/05/24 04:31:57;;;;;;;;;1.25;1.25;;;;;;;;5094191;27;45546;-65
2022/05/24 04:34:23;;;;;;;;;1.00;1.00;;;;;;;;5094693;27;45382;-65
2022/05/24 04:36:48;;;;;;;;;1.00;1.00;;;;;;;;5094972;27;45382;-65
2022/05/24 04:39:15;;;;;;;;;0.00;0.00;;;;;;;;5094646;27;46345;-65
2022/05/24 04:44:24;;;;;;;;;1.00;1.00;;;;;;;;5094128;27;45265;-64
2022/05/24 04:47:07;;;;;;;;;1.50;1.50;;;;;;;;5094289;27;45240;-65
2022/05/24 04:49:33;;;;;;;;;2.75;1.00;;;;;;;;5094499;27;46136;-65
2022/05/24 04:51:58;;;;;;;;;1.00;1.00;;;;;;;;5094023;27;45276;-65
2022/05/24 04:54:24;;;;;;;;;1.25;1.25;;;;;;;;5094501;27;45330;-65
2022/05/24 04:56:49;;;;;;;;;1.50;1.00;;;;;;;;5093861;27;45164;-65
2022/05/24 04:59:16;;;;;;;;;0.00;0.00;;;;;;;;5093510;27;46174;-64
2022/05/24 05:01:41;;;;;;;;;2.00;0.75;;;;;;;;5093835;27;45319;-65
2022/05/24 05:04:07;;;;;;;;;2.25;1.75;;;;;;;;5093794;27;45227;-64
2022/05/24 05:06:32;;;;;;;;;1.75;1.00;;;;;;;;5080090;27;45449;-65
2022/05/24 05:08:57;;;;;;;;;0.75;0.50;;;;;;;;5095755;27;46153;-65
2022/05/24 05:11:22;;;;;;;;;2.00;1.00;;;;;;;;5097046;27;45400;-65
2022/05/24 05:13:48;;;;;;;;;2.00;1.00;;;;;;;;5081452;27;45308;-65
2022/05/24 05:16:13;;;;;;;;;2.00;1.50;;;;;;;;5097928;27;45344;-68
2022/05/24 05:18:38;;;;;;;;;1.00;0.00;;;;;;;;5097605;27;46150;-68
2022/05/24 05:21:04;;;;;;;;;1.00;0.00;;;;;;;;5096870;27;45255;-68
2022/05/24 05:23:29;;;;;;;;;1.25;1.25;;;;;;;;5097296;27;45435;-68
2022/05/24 05:25:54;;;;;;;;;2.50;2.50;;;;;;;;5096995;27;45585;-67
2022/05/24 05:28:19;;;;;;;;;5.00;3.25;;;;;;;;5097056;27;45420;-67
2022/05/24 05:33:30;;;;;;;;;0.25;0.25;;;;;;;;5096647;27;45372;-67
2022/05/24 05:35:55;;;;;;;;;0.00;0.00;;;;;;;;5096586;27;45418;-67
2022/05/24 05:38:20;;;;;;;;;3.00;1.00;;;;;;;;5096208;27;47391;-67
2022/05/24 05:40:46;;;;;;;;;5.00;3.00;;;;;;;;5096678;27;45396;-67
2022/05/24 05:43:11;;;;;;;;;2.00;1.00;;;;;;;;5096397;27;45315;-67
2022/05/24 05:45:37;;;;;;;;;3.00;2.00;;;;;;;;5097686;27;45896;-67
2022/05/24 05:48:04;;;;;;;;;1.25;1.25;;;;;;;;5096355;27;46299;-67
2022/05/24 05:50:29;;;;;;;;;3.25;1.00;;;;;;;;5096128;27;45345;-66
2022/05/24 05:52:54;;;;;;;;;3.00;3.00;;;;;;;;5096821;27;45731;-65
2022/05/24 05:55:19;;;;;;;;;1.00;1.00;;;;;;;;5094307;27;45568;-68
2022/05/24 05:57:45;;;;;;;;;3.00;2.00;;;;;;;;5096230;27;46166;-67
2022/05/24 06:00:11;;;;;;;;;2.75;1.25;;;;;;;;5095748;27;45435;-67
2022/05/24 06:02:37;;;;;;;;;1.00;1.00;;;;;;;;5095970;27;45361;-68
2022/05/24 06:05:02;;;;;;;;;4.25;1.75;;;;;;;;5082459;27;45363;-68
2022/05/24 06:07:27;;;;;;;;;2.00;1.75;;;;;;;;5096161;27;47053;-66
2022/05/24 06:09:53;;;;;;;;;2.75;2.50;;;;;;;;5080563;27;45365;-66
2022/05/24 06:12:18;;;;;;;;;3.00;1.75;;;;;;;;5096089;27;45297;-67
2022/05/24 06:14:44;;;;;;;;;1.75;1.75;;;;;;;;5095464;27;45433;-67
2022/05/24 06:17:10;;;;;;;;;4.75;2.50;;;;;;;;5094399;27;47047;-67
2022/05/24 06:19:35;;;;;;;;;2.00;2.00;;;;;;;;5094809;27;45553;-67
2022/05/24 06:22:00;;;;;;;;;2.25;1.75;;;;;;;;5095760;27;45613;-68
2022/05/24 06:24:26;;;;;;;;;1.00;1.00;;;;;;;;5096230;27;45191;-68
2022/05/24 06:26:51;;;;;;;;;4.00;4.00;;;;;;;;5095018;27;45734;-67
2022/05/24 06:29:17;;;;;;;;;2.00;2.00;;;;;;;;5095519;27;45391;-68
2022/05/24 06:31:44;;;;;;;;;2.25;2.25;;;;;;;;5095724;27;45354;-68
2022/05/24 06:34:09;;;;;;;;;2.00;2.00;;;;;;;;5095434;27;45174;-66
2022/05/24 06:36:35;;;;;;;;;2.25;2.25;;;;;;;;5095828;27;46266;-67
2022/05/24 06:39:00;;;;;;;;;4.00;3.00;;;;;;;;5094675;27;45281;-68
2022/05/24 06:41:25;;;;;;;;;3.00;3.00;;;;;;;;5094472;27;45361;-67
2022/05/24 06:43:50;;;;;;;;;1.00;1.00;;;;;;;;5094719;27;45356;-68
2022/05/24 06:46:15;;;;;;;;;4.75;3.25;;;;;;;;5094968;27;45286;-67
2022/05/24 06:48:42;;;;;;;;;5.75;3.25;;;;;;;;5081709;27;45492;-67
2022/05/24 06:51:13;;;;;;;;;2.00;2.00;;;;;;;;5094456;27;45377;-68
2022/05/24 06:53:39;;;;;;;;;4.00;2.25;;;;;;;;5093836;27;45457;-68
2022/05/24 06:56:05;;;;;;;;;1.00;1.00;;;;;;;;5093725;27;46462;-67
2022/05/24 06:58:30;;;;;;;;;3.00;2.00;;;;;;;;5094809;27;45364;-66
2022/05/24 07:03:39;;;;;;;;;2.75;2.00;;;;;;;;5095001;27;45606;-68
2022/05/24 07:06:05;;;;;;;;;2.75;1.00;;;;;;;;5094307;27;46207;-68
2022/05/24 07:08:30;;;;;;;;;2.50;1.25;;;;;;;;5094102;27;45587;-68
2022/05/24 07:10:55;;;;;;;;;2.25;1.50;;;;;;;;5093527;27;45441;-67
2022/05/24 07:13:20;;;;;;;;;3.00;1.50;;;;;;;;5094162;27;45467;-67
2022/05/24 07:15:46;;;;;;;;;2.50;1.50;;;;;;;;5093997;27;45297;-68
2022/05/24 07:18:12;;;;;;;;;4.00;2.75;;;;;;;;5094415;27;45424;-69
2022/05/24 07:20:37;;;;;;;;;3.50;2.00;;;;;;;;5094822;27;45431;-68
2022/05/24 07:23:09;;;;;;;;;3.25;2.75;;;;;;;;5094522;27;45415;-68
2022/05/24 07:25:35;;;;;;;;;2.25;2.25;;;;;;;;5094146;27;46365;-67
2022/05/24 07:28:01;;;;;;;;;4.25;4.00;;;;;;;;5093542;27;45486;-66
2022/05/24 07:30:26;;;;;;;;;1.75;1.75;;;;;;;;5095130;27;45307;-67
2022/05/24 07:32:52;;;;;;;;;2.50;2.50;;;;;;;;5093964;27;45431;-68
2022/05/24 07:35:17;;;;;;;;;3.00;1.00;;;;;;;;5093688;27;45459;-68
2022/05/24 07:37:42;;;;;;;;;2.00;2.00;;;;;;;;5094617;27;45291;-68
2022/05/24 07:45:54;;;;;;;;;2.75;1.50;;;;;;;;5007862;28;45566;-67
2022/05/24 07:48:20;;;;;;;;;1.00;1.00;;;;;;;;5023754;28;45334;-68
2022/05/24 07:50:45;;;;;;;;;2.00;1.00;;;;;;;;5021003;28;45362;-68
2022/05/24 07:53:11;;;;;;;;;2.00;2.00;;;;;;;;5020157;28;45404;-68
2022/05/24 07:55:36;;;;;;;;;3.75;3.75;;;;;;;;5022284;28;46193;-68
2022/05/24 07:58:01;;;;;;;;;2.75;2.75;;;;;;;;5025515;28;45412;-68
2022/05/24 08:00:26;;;;;;;;;1.00;1.00;;;;;;;;5025113;28;45348;-67
2022/05/24 08:02:52;;;;;;;;;0.00;0.00;;;;;;;;5020656;28;45454;-68
2022/05/24 08:05:18;;;;;;;;;1.50;1.50;;;;;;;;5020336;28;46996;-67
2022/05/24 08:07:45;;;;;;;;;1.00;0.50;;;;;;;;5015499;28;45598;-68
2022/05/24 08:10:11;;;;;;;;;1.00;1.00;;;;;;;;5008880;28;45526;-67
2022/05/24 08:12:36;;;;;;;;;4.25;3.00;;;;;;;;5026171;28;45573;-67
2022/05/24 08:15:01;;;;;;;;;1.00;1.00;;;;;;;;5020856;28;46251;-67
2022/05/24 08:17:27;;;;;;;;;1.50;1.00;;;;;;;;5064389;27;45488;-67
2022/05/24 08:19:55;;;;;;;;;10.50;10.50;;;;;;;;5094278;27;45430;-67
2022/05/24 08:22:20;;;;;;;;;1.75;1.25;;;;;;;;5094065;27;45429;-67
2022/05/24 08:24:45;;;;;;;;;2.75;2.75;;;;;;;;5094764;27;45306;-67
2022/05/24 08:27:14;;;;;;;;;1.00;1.00;;;;;;;;5094490;27;46050;-67
2022/05/24 08:29:39;;;;;;;;;1.00;1.00;;;;;;;;5094168;27;45508;-67
2022/05/24 08:32:04;;;;;;;;;2.00;2.00;;;;;;;;5094140;27;45428;-65
2022/05/24 08:34:31;;;;;;;;;0.50;0.50;;;;;;;;5093771;27;45383;-67
2022/05/24 08:36:56;;;;;;;;;3.00;3.00;;;;;;;;5093577;27;45633;-67
2022/05/24 08:39:22;;;;;;;;;5.50;1.25;;;;;;;;5094506;27;45270;-69
2022/05/24 08:42:04;;;;;;;;;3.00;2.00;;;;;;;;5097269;27;45415;-68
2022/05/24 08:50:12;;;;;;;;;2.50;1.25;;;;;;;;5096537;27;45448;-68
2022/05/24 08:52:59;;;;;;;;;1.75;1.00;;;;;;;;5096525;27;45361;-68
2022/05/24 08:55:25;;;;;;;;;0.25;0.25;;;;;;;;5081730;27;45307;-67
2022/05/24 08:57:52;;;;;;;;;1.00;1.00;;;;;;;;5097246;27;45393;-68
2022/05/24 09:00:21;;;;;;;;;4.25;3.00;;;;;;;;5096355;27;45366;-68
2022/05/24 09:02:47;;;;;;;;;2.50;2.25;;;;;;;;5096578;27;45306;-68
2022/05/24 09:05:18;;;;;;;;;2.50;0.75;;;;;;;;5096321;27;47422;-68
2022/05/24 09:08:01;;;;;;;;;1.25;1.25;;;;;;;;5096630;27;45376;-68
2022/05/24 09:10:33;;;;;;;;;1.00;0.00;;;;;;;;5082482;27;45258;-68
2022/05/24 09:12:59;;;;;;;;;0.00;0.00;;;;;;;;5097245;27;45582;-68
2022/05/24 09:15:36;;;;;;;;;1.00;1.00;;;;;;;;5096663;27;45612;-67
2022/05/24 09:18:07;;;;;;;;;3.00;0.75;;;;;;;;5096003;27;45263;-66
2022/05/24 09:20:35;;;;;;;;;1.50;1.50;;;;;;;;5096414;27;45495;-68
2022/05/24 09:23:21;;;;;;;;;3.00;3.00;;;;;;;;5096524;27;45451;-68
2022/05/24 09:25:53;;;;;;;;;0.00;0.00;;;;;;;;5085231;27;47251;-68
2022/05/24 09:28:18;;;;;;;;;1.00;1.00;;;;;;;;5080754;27;45267;-68
2022/05/24 09:30:43;;;;;;;;;0.00;0.00;;;;;;;;5097193;27;45569;-68
2022/05/24 09:33:20;;;;;;;;;1.75;1.75;;;;;;;;5096204;27;45235;-68
2022/05/24 09:35:48;;;;;;;;;3.00;2.00;;;;;;;;5095415;27;46157;-68
2022/05/24 09:38:16;;;;;;;;;4.00;4.00;;;;;;;;5095720;27;45457;-68
2022/05/24 09:40:52;;;;;;;;;2.00;2.00;;;;;;;;5095893;27;45638;-68
2022/05/24 09:43:34;;;;;;;;;6.25;2.00;;;;;;;;5080642;27;45446;-67
2022/05/24 09:46:02;;;;;;;;;3.25;3.25;;;;;;;;5096339;27;46333;-68
2022/05/24 09:48:29;;;;;;;;;3.00;2.50;;;;;;;;5094921;27;45390;-68
2022/05/24 09:50:55;;;;;;;;;2.00;2.00;;;;;;;;5095759;27;45412;-68
2022/05/24 09:53:22;;;;;;;;;0.00;0.00;;;;;;;;5096397;27;45522;-67
2022/05/24 09:56:01;;;;;;;;;1.00;1.00;;;;;;;;5080490;27;48288;-68
2022/05/24 09:58:26;;;;;;;;;2.25;2.00;;;;;;;;5081929;27;45373;-68
2022/05/24 10:00:57;;;;;;;;;3.50;3.50;;;;;;;;5096880;27;45292;-68
2022/05/24 10:03:24;;;;;;;;;4.50;4.50;;;;;;;;5096221;27;45556;-67
2022/05/24 10:05:58;;;;;;;;;1.00;1.00;;;;;;;;5096349;27;46970;-68
2022/05/24 10:08:23;;;;;;;;;1.50;1.50;;;;;;;;5095621;27;45530;-66
2022/05/24 10:10:54;;;;;;;;;11.25;10.25;;;;;;;;5080211;27;45366;-68
2022/05/24 10:13:19;;;;;;;;;2.00;2.00;;;;;;;;5096266;27;45451;-68
2022/05/24 10:16:04;;;;;;;;;5.00;3.25;;;;;;;;5082364;27;46898;-68
2022/05/24 10:18:39;;;;;;;;;1.50;1.25;;;;;;;;5094330;27;45427;-68
2022/05/24 10:21:10;;;;;;;;;7.25;5.00;;;;;;;;5095948;27;45191;-66
2022/05/24 10:23:41;;;;;;;;;2.25;2.00;;;;;;;;5095905;27;45505;-67
2022/05/24 10:26:25;;;;;;;;;3.50;1.75;;;;;;;;5095494;27;47255;-68
2022/05/24 10:28:53;;;;;;;;;1.50;1.50;;;;;;;;5095336;27;45366;-68
2022/05/24 10:31:21;;;;;;;;;3.00;2.00;;;;;;;;5096026;27;45383;-68
2022/05/24 10:39:38;;;;;;;;;1.00;1.00;;;;;;;;5095795;27;45293;-68
2022/05/24 10:42:04;;;;;;;;;0.00;0.00;;;;;;;;5092885;27;45374;-67
2022/05/24 10:44:32;;;;;;;;;3.00;1.00;;;;;;;;5095580;27;45593;-68
2022/05/24 10:47:07;;;;;;;;;2.00;0.25;;;;;;;;5093958;27;45779;-68
2022/05/24 10:49:33;;;;;;;;;1.00;1.00;;;;;;;;5094892;27;45471;-67
2022/05/24 10:52:03;;;;;;;;;2.25;1.75;;;;;;;;5094947;27;45355;-68
2022/05/24 10:54:46;;;;;;;;;2.25;1.75;;;;;;;;5093811;27;45519;-68
2022/05/24 10:57:18;;;;;;;;;0.00;0.00;;;;;;;;5095024;27;45371;-68
2022/05/24 10:59:57;;;;;;;;;2.00;1.00;;;;;;;;5094807;27;45487;-68
2022/05/24 11:02:41;;;;;;;;;1.00;1.00;;;;;;;;5094473;27;45551;-68
2022/05/24 11:05:13;;;;;;;;;2.75;1.75;;;;;;;;5094909;27;45381;-68
2022/05/24 11:07:38;;;;;;;;;0.75;0.75;;;;;;;;5094773;27;46075;-68
2022/05/24 11:10:09;;;;;;;;;1.00;1.00;;;;;;;;5094872;27;45514;-68
2022/05/24 11:12:38;;;;;;;;;1.75;1.75;;;;;;;;5095582;27;45423;-67
2022/05/24 11:15:12;;;;;;;;;0.50;0.50;;;;;;;;5082116;27;45450;-68
2022/05/24 11:17:37;;;;;;;;;3.00;3.00;;;;;;;;5093863;27;46220;-68
2022/05/24 11:20:04;;;;;;;;;7.25;4.75;;;;;;;;5094337;27;45436;-69
2022/05/24 11:22:30;;;;;;;;;6.75;6.75;;;;;;;;5095374;27;45337;-68
2022/05/24 11:24:58;;;;;;;;;5.25;3.00;;;;;;;;5094628;27;45485;-68
2022/05/24 11:27:31;;;;;;;;;1.75;1.75;;;;;;;;5095116;27;46668;-67
2022/05/24 11:30:07;;;;;;;;;4.25;4.25;;;;;;;;5094226;27;45384;-68
2022/05/24 11:32:52;;;;;;;;;1.25;1.25;;;;;;;;5094223;27;45467;-69
2022/05/24 11:35:17;;;;;;;;;4.00;2.75;;;;;;;;5094450;27;45550;-68
2022/05/24 11:37:43;;;;;;;;;1.00;1.00;;;;;;;;5094501;27;46298;-68
2022/05/24 11:40:20;;;;;;;;;2.00;2.00;;;;;;;;5094313;27;45413;-68
2022/05/24 11:42:46;;;;;;;;;2.50;1.50;;;;;;;;5090627;27;45218;-68
2022/05/24 11:45:30;;;;;;;;;1.00;1.00;;;;;;;;5093939;27;45451;-68
2022/05/24 11:47:55;;;;;;;;;0.00;0.00;;;;;;;;5093471;27;47067;-68
2022/05/24 11:50:32;;;;;;;;;3.00;1.25;;;;;;;;5093388;27;45617;-68
2022/05/24 11:53:00;;;;;;;;;3.00;1.00;;;;;;;;5093498;27;45314;-68
2022/05/24 11:55:44;;;;;;;;;0.75;0.75;;;;;;;;5094122;27;45391;-68
2022/05/24 11:58:21;;;;;;;;;0.00;0.00;;;;;;;;5093755;27;46356;-68
2022/05/24 12:01:04;;;;;;;;;1.00;1.00;;;;;;;;5089857;27;45338;-67
2022/05/24 12:09:11;;;;;;;;;0.00;0.00;;;;;;;;5093941;27;45680;-68
2022/05/24 12:11:37;;;;;;;;;0.33;0.33;;;;;;;;5094023;27;45361;-68
2022/05/24 12:14:33;;;;;;;;;2.00;2.00;;;;;;;;5094018;27;45634;-68
2022/05/24 12:17:01;;;;;;;;;1.33;1.33;;;;;;;;5097071;27;45407;-68
2022/05/24 12:19:37;;;;;;;;;1.67;0.67;;;;;;;;5097140;27;47149;-69
2022/05/24 12:22:03;;;;;;;;;1.00;1.00;;;;;;;;5098323;27;45218;-67
2022/05/24 12:24:48;;;;;;;;;1.00;0.00;;;;;;;;5098720;27;45373;-67
2022/05/24 12:27:20;;;;;;;;;0.00;0.00;;;;;;;;5097822;27;45593;-66
2022/05/24 12:29:57;;;;;;;;;2.00;1.00;;;;;;;;5096938;27;46378;-67
2022/05/24 12:32:23;;;;;;;;;5.00;5.00;;;;;;;;5097106;27;45180;-68
2022/05/24 12:34:48;;;;;;;;;1.00;0.33;;;;;;;;5097711;27;45582;-68
2022/05/24 12:37:19;;;;;;;;;1.00;1.00;;;;;;;;5097078;27;45479;-68
2022/05/24 12:40:03;;;;;;;;;0.33;0.33;;;;;;;;5093357;27;46153;-68
2022/05/24 12:42:28;;;;;;;;;0.00;0.00;;;;;;;;5095327;27;45325;-68
2022/05/24 12:44:54;;;;;;;;;2.33;1.00;;;;;;;;5096432;27;45638;-68
2022/05/24 12:47:20;;;;;;;;;0.00;0.00;;;;;;;;5096624;27;45388;-68
2022/05/24 12:49:48;;;;;;;;;0.67;0.67;;;;;;;;5096394;27;48310;-68
2022/05/24 12:52:13;;;;;;;;;2.00;1.00;;;;;;;;5097109;27;45405;-67
2022/05/24 12:55:02;;;;;;;;;3.67;1.00;;;;;;;;5097609;27;45523;-68
2022/05/24 12:57:29;;;;;;;;;0.00;0.00;;;;;;;;5089498;27;45575;-67
2022/05/24 12:59:56;;;;;;;;;0.00;0.00;;;;;;;;5096756;27;45528;-67
2022/05/24 13:02:21;;;;;;;;;2.00;0.00;;;;;;;;5096904;27;45281;-68
2022/05/24 13:04:47;;;;;;;;;2.00;2.00;;;;;;;;5096917;27;45436;-68
2022/05/24 13:07:42;;;;;;;;;1.00;1.00;;;;;;;;5096837;27;45509;-70
2022/05/24 13:10:12;;;;;;;;;8.00;8.00;;;;;;;;5055720;27;48324;-68
2022/05/24 13:12:38;;;;;;;;;1.00;1.00;;;;;;;;5096840;27;45475;-68
2022/05/24 13:15:05;;;;;;;;;2.25;0.75;;;;;;;;5096599;27;45531;-68
2022/05/24 13:17:38;;;;;;;;;0.00;0.00;;;;;;;;5096047;27;45537;-67
2022/05/24 13:20:09;;;;;;;;;2.00;2.00;;;;;;;;5096155;27;47290;-67
2022/05/24 13:22:43;;;;;;;;;0.33;0.33;;;;;;;;5096330;27;45394;-68
2022/05/24 13:25:17;;;;;;;;;6.00;4.00;;;;;;;;5096821;27;45402;-68
2022/05/24 13:27:56;;;;;;;;;0.67;0.67;;;;;;;;5091591;27;45342;-68
2022/05/24 13:33:35;;;;;;;;;0.33;0.33;;;;;;;;5090984;27;45502;-67
2022/05/24 13:36:02;;;;;;;;;2.00;2.00;;;;;;;;5095493;27;45414;-67
2022/05/24 13:38:28;;;;;;;;;2.00;2.00;;;;;;;;5096271;27;45468;-68
2022/05/24 13:40:55;;;;;;;;;0.00;0.00;;;;;;;;5094466;27;45533;-67
2022/05/24 13:43:30;;;;;;;;;0.00;0.00;;;;;;;;5096024;27;45512;-67
2022/05/24 13:46:16;;;;;;;;;2.00;2.00;;;;;;;;5095851;27;45353;-67
2022/05/24 13:48:58;;;;;;;;;2.00;1.00;;;;;;;;5096636;27;45399;-67
2022/05/24 13:51:27;;;;;;;;;0.00;0.00;;;;;;;;5096202;27;45472;-68
2022/05/24 13:53:52;;;;;;;;;1.00;0.00;;;;;;;;5095689;27;45531;-68
2022/05/24 13:56:20;;;;;;;;;0.67;0.67;;;;;;;;5095656;27;45765;-67
2022/05/24 13:58:49;;;;;;;;;4.00;4.00;;;;;;;;5079517;27;45398;-67
2022/05/24 14:01:32;;;;;;;;;0.00;0.00;;;;;;;;5079573;27;46168;-68
2022/05/24 14:04:03;;;;;;;;;2.67;2.00;;;;;;;;5093710;27;45789;-68
2022/05/24 14:06:29;;;;;;;;;3.00;1.00;;;;;;;;5094758;27;45598;-67
2022/05/24 14:08:56;;;;;;;;;0.33;0.33;;;;;;;;5095312;27;45531;-68
2022/05/24 14:11:24;;;;;;;;;3.67;2.00;;;;;;;;5082603;27;47430;-69
2022/05/24 14:13:49;;;;;;;;;0.00;0.00;;;;;;;;5096273;27;45334;-68
2022/05/24 14:16:15;;;;;;;;;0.00;0.00;;;;;;;;5079414;27;45593;-68
2022/05/24 14:18:41;;;;;;;;;0.00;0.00;;;;;;;;5095918;27;45310;-68
2022/05/24 14:21:07;;;;;;;;;0.00;0.00;;;;;;;;5095221;27;47135;-68
2022/05/24 14:23:33;;;;;;;;;0.00;0.00;;;;;;;;5094972;27;45456;-68
2022/05/24 14:25:59;;;;;;;;;0.00;0.00;;;;;;;;5095331;27;45408;-68
2022/05/24 14:28:24;;;;;;;;;0.00;0.00;;;;;;;;5095590;27;45499;-68
2022/05/24 14:30:49;;;;;;;;;0.67;0.67;;;;;;;;5095800;27;46255;-69
2022/05/24 14:33:16;;;;;;;;;0.67;0.67;;;;;;;;5095760;27;45480;-68
2022/05/24 14:35:41;;;;;;;;;0.00;0.00;;;;;;;;5083238;27;45512;-67
2022/05/24 14:38:07;;;;;;;;;0.00;0.00;;;;;;;;5094653;27;45518;-68
2022/05/24 14:40:38;;;;;;;;;1.33;0.00;;;;;;;;5095326;27;46150;-68
2022/05/24 14:43:05;;;;;;;;;0.00;0.00;;;;;;;;5095485;27;45575;-68
2022/05/24 14:45:30;;;;;;;;;0.67;0.67;;;;;;;;5096047;27;45385;-67
2022/05/24 14:47:55;;;;;;;;;0.00;0.00;;;;;;;;5095220;27;45387;-69
2022/05/24 14:50:20;;;;;;;;;1.00;0.00;;;;;;;;5095713;27;46220;-68
2022/05/24 14:52:46;;;;;;;;;0.00;0.00;;;;;;;;5095167;27;45594;-67
2022/05/24 14:55:15;;;;;;;;;0.00;0.00;;;;;;;;5076771;27;45377;-68
2022/05/24 14:57:40;;;;;;;;;8.00;7.75;;;;;;;;5095893;27;45569;-68
2022/05/24 15:00:06;;;;;;;;;3.25;3.25;;;;;;;;5094536;27;46266;-68
2022/05/24 15:02:31;;;;;;;;;0.00;0.00;;;;;;;;5094920;27;45321;-68
2022/05/24 15:04:56;;;;;;;;;0.00;0.00;;;;;;;;5094911;27;45284;-68
2022/05/24 15:15:36;;;;;;;;;0.00;0.00;;;;;;;;5095066;27;45236;-68
2022/05/24 15:18:02;;;;;;;;;0.00;0.00;;;;;;;;5094067;27;45452;-68
2022/05/24 15:20:28;;;;;;;;;0.00;0.00;;;;;;;;5078900;27;47328;-69
2022/05/24 15:22:55;;;;;;;;;0.00;0.00;;;;;;;;5093998;27;45357;-68
2022/05/24 15:25:23;;;;;;;;;0.00;0.00;;;;;;;;5094623;27;45471;-68
2022/05/24 15:27:48;;;;;;;;;0.00;0.00;;;;;;;;5094671;27;45363;-67
2022/05/24 15:30:14;;;;;;;;;0.00;0.00;;;;;;;;5093918;27;46092;-68
2022/05/24 15:32:39;;;;;;;;;3.00;1.00;;;;;;;;5093932;27;45578;-68
2022/05/24 15:35:05;;;;;;;;;1.00;0.25;;;;;;;;5094147;27;45336;-68
2022/05/24 15:37:31;;;;;;;;;0.00;0.00;;;;;;;;5094126;27;45154;-67
2022/05/24 15:39:56;;;;;;;;;1.33;0.00;;;;;;;;5094357;27;46050;-69
2022/05/24 15:42:21;;;;;;;;;1.33;0.00;;;;;;;;5094413;27;45467;-68
2022/05/24 15:44:46;;;;;;;;;0.00;0.00;;;;;;;;5093967;27;45319;-68
2022/05/24 15:47:11;;;;;;;;;0.00;0.00;;;;;;;;5093696;27;45506;-68